Language: 


Des rapports , des résumés tant et plus, au choix de chacun....


Données statistiques de la station
Quotidien Rapport Janvier 1, 2018 Unités:  Anglais    Métrique   les deux
« Précédent Jour
Suivant Jour »
Quotidien Hebdomadaire Mensuel Annuel Actuel
  Haut: Bas: Moyen:
Température: TemperatureC °F 5.6 °F 6.6 °F
Pt de rosée: DewpointC °F 5.0 °F 6.1 °F
Humidité: Humidity % 81 % 95 %
Vitesse du vent: WindSpeedKMH mph 0.0 mph 14.7 mph
Rafales: WindSpeedGustKMH mph - -
Vent:- - SW
Pression: PressurehPa in 993.1 in -
Précipitation: 14.5 in    
Historical Graphs
 
 
Données statistiques pour Janvier 1, 2018
Heure Température Point de rosée Pression Vent Vitesse du vent Refales Humidité Pluie (taux horaire)
TemperatureC °F DewpointC °F PressurehPa in Calm     Humidity % HourlyPrecipMM in
00:00 7.3 °F 6.0 °F 997.9 in WSW 28.5 mph 50.4 mph 89 % 0.8 in
00:05 7.2 °F 6.0 °F 997.9 in WSW 25.3 mph 40.4 mph 90 % 0.8 in
00:07 7.2 °F 6.0 °F 997.9 in SW 23.8 mph 40.4 mph 91 % 0.8 in
00:12 7.3 °F 6.0 °F 997.9 in WSW 28.5 mph 40.4 mph 91 % 0.8 in
00:14 7.4 °F 6.0 °F 997.9 in WSW 22.4 mph 36.0 mph 91 % 1.3 in
00:20 7.7 °F 6.0 °F 997.9 in WSW 26.2 mph 48.9 mph 90 % 1.3 in
00:21 7.7 °F 6.0 °F 997.9 in WSW 40.7 mph 48.9 mph 90 % 1.3 in
00:26 8.0 °F 6.0 °F 997.9 in WSW 40.4 mph 57.3 mph 87 % 1.3 in
00:31 8.2 °F 6.0 °F 997.9 in WSW 32.8 mph 57.3 mph 86 % 1.0 in
00:35 8.3 °F 6.0 °F 997.9 in WSW 42.5 mph 55.0 mph 85 % 0.5 in
00:41 8.3 °F 6.0 °F 997.9 in WSW 35.2 mph 55.0 mph 85 % 0.5 in
00:46 8.2 °F 6.0 °F 997.9 in WSW 37.0 mph 51.8 mph 85 % 0.5 in
00:51 8.3 °F 6.0 °F 997.9 in WSW 41.7 mph 53.3 mph 85 % 0.3 in
00:52 8.3 °F 6.0 °F 997.9 in WSW 21.6 mph 53.3 mph 85 % 0.3 in
00:57 8.2 °F 6.0 °F 997.9 in WSW 34.3 mph 53.3 mph 86 % 0.3 in
00:58 8.2 °F 6.0 °F 997.9 in WSW 36.4 mph 53.3 mph 86 % 0.3 in
01:00 8.1 °F 6.0 °F 997.9 in WSW 39.6 mph 57.3 mph 85 % 0.3 in
01:05 8.0 °F 6.0 °F 997.9 in WSW 32.0 mph 57.3 mph 86 % 0.3 in
01:07 8.0 °F 6.0 °F 997.9 in WSW 24.5 mph 57.3 mph 86 % 0.3 in
01:12 8.0 °F 6.0 °F 998.9 in WSW 42.5 mph 51.5 mph 86 % 0.3 in
01:16 7.9 °F 6.0 °F 998.9 in WSW 28.5 mph 52.6 mph 88 % 0.0 in
01:20 7.9 °F 6.0 °F 998.9 in WSW 39.6 mph 52.6 mph 89 % 0.0 in
01:25 7.7 °F 6.0 °F 998.9 in WSW 31.7 mph 42.2 mph 92 % 0.0 in
01:30 7.7 °F 6.0 °F 998.9 in WSW 36.4 mph 42.2 mph 92 % 0.0 in
01:31 7.7 °F 7.0 °F 998.9 in WSW 37.0 mph 42.2 mph 93 % 0.0 in
01:36 7.7 °F 7.0 °F 998.9 in WSW 30.6 mph 40.4 mph 93 % 0.0 in
01:37 7.7 °F 7.0 °F 998.9 in WSW 31.4 mph 40.4 mph 93 % 0.0 in
01:42 7.7 °F 7.0 °F 998.9 in SSW 40.7 mph 51.2 mph 93 % 0.3 in
01:45 7.6 °F 7.0 °F 998.9 in WSW 30.2 mph 51.2 mph 93 % 0.3 in
01:49 7.6 °F 6.0 °F 998.9 in WSW 27.4 mph 51.2 mph 92 % 0.3 in
01:54 7.6 °F 6.0 °F 998.9 in WSW 36.0 mph 41.7 mph 92 % 0.3 in
01:59 7.5 °F 6.0 °F 998.9 in WSW 28.5 mph 41.4 mph 92 % 0.3 in
02:04 7.6 °F 6.0 °F 998.9 in WSW 26.2 mph 42.5 mph 92 % 0.3 in
02:06 7.6 °F 7.0 °F 998.9 in WSW 36.0 mph 42.5 mph 93 % 0.3 in
02:11 7.6 °F 7.0 °F 998.9 in WSW 36.0 mph 42.5 mph 93 % 0.3 in
02:12 7.6 °F 6.0 °F 998.9 in WSW 36.0 mph 42.5 mph 92 % 0.3 in
02:17 7.6 °F 6.0 °F 998.9 in WSW 36.0 mph 36.0 mph 92 % 0.3 in
02:18 7.6 °F 6.0 °F 998.9 in WSW 36.0 mph 36.0 mph 92 % 0.3 in
02:23 7.6 °F 6.0 °F 998.9 in WSW 27.7 mph 36.0 mph 92 % 0.3 in
02:28 7.4 °F 6.0 °F 999.9 in WSW 27.7 mph 36.0 mph 93 % 0.3 in
02:29 7.4 °F 6.0 °F 999.9 in WSW 27.7 mph 36.0 mph 93 % 0.3 in
02:35 7.3 °F 6.0 °F 999.9 in WSW 27.7 mph 27.7 mph 93 % 0.3 in
02:37 7.3 °F 6.0 °F 999.9 in WSW 27.7 mph 27.7 mph 94 % 0.3 in
02:40 7.3 °F 6.0 °F 999.9 in WSW 17.7 mph 27.7 mph 94 % 0.0 in
02:45 7.3 °F 6.0 °F 999.9 in WSW 28.5 mph 28.5 mph 94 % 0.0 in
02:47 7.3 °F 6.0 °F 999.9 in WSW 28.5 mph 28.5 mph 94 % 0.0 in
02:50 7.3 °F 6.0 °F 999.9 in WSW 28.5 mph 28.5 mph 94 % 0.0 in
02:53 7.3 °F 6.0 °F 999.9 in WSW 20.6 mph 28.5 mph 94 % 0.0 in
02:58 7.3 °F 6.0 °F 1000.9 in WSW 31.4 mph 31.4 mph 94 % 0.0 in
03:02 7.3 °F 6.0 °F 1000.9 in WSW 33.8 mph 33.8 mph 94 % 0.0 in
03:07 7.2 °F 6.0 °F 1000.9 in WSW 37.0 mph 37.5 mph 94 % 0.0 in
03:09 7.2 °F 6.0 °F 1000.9 in WSW 37.0 mph 37.5 mph 94 % 0.0 in
03:10 7.1 °F 6.0 °F 1000.9 in WSW 37.0 mph 37.5 mph 94 % 0.0 in
03:14 7.1 °F 6.0 °F 1000.9 in SW 21.2 mph 37.5 mph 93 % 0.0 in
03:15 7.1 °F 6.0 °F 1000.9 in SW 21.2 mph 37.5 mph 93 % 0.0 in
03:17 7.1 °F 6.0 °F 1000.9 in SSW 23.0 mph 37.0 mph 93 % 0.0 in
03:22 7.1 °F 6.0 °F 1000.9 in SSW 23.0 mph 23.0 mph 93 % 0.0 in
03:25 7.1 °F 6.0 °F 1000.9 in SSW 23.0 mph 23.0 mph 93 % 0.0 in
03:26 7.1 °F 6.0 °F 1000.9 in SSW 23.0 mph 23.0 mph 93 % 0.0 in
03:30 7.1 °F 6.0 °F 1000.9 in SSW 20.9 mph 23.0 mph 93 % 0.0 in
03:35 7.1 °F 6.0 °F 1000.9 in SW 16.6 mph 23.0 mph 93 % 0.0 in
03:38 7.1 °F 6.0 °F 1000.9 in SW 16.6 mph 23.0 mph 93 % 0.0 in
03:41 7.1 °F 6.0 °F 999.9 in SW 16.6 mph 20.9 mph 92 % 0.0 in
03:44 7.1 °F 6.0 °F 999.9 in SW 16.6 mph 16.6 mph 92 % 0.0 in
03:46 7.1 °F 6.0 °F 999.9 in SSW 21.2 mph 21.2 mph 92 % 0.0 in
03:47 7.1 °F 6.0 °F 999.9 in SSW 21.2 mph 21.2 mph 92 % 0.0 in
03:51 7.0 °F 6.0 °F 999.9 in SSW 21.2 mph 21.2 mph 92 % 0.0 in
03:54 7.0 °F 6.0 °F 999.9 in WSW 19.8 mph 21.2 mph 91 % 0.0 in
03:57 7.0 °F 6.0 °F 999.9 in WSW 19.8 mph 21.2 mph 91 % 0.0 in
04:00 7.0 °F 6.0 °F 999.9 in WSW 19.8 mph 21.2 mph 91 % 0.0 in
04:05 6.9 °F 6.0 °F 999.9 in WSW 19.8 mph 19.8 mph 92 % 0.0 in
04:10 6.9 °F 6.0 °F 999.9 in SSW 13.0 mph 19.8 mph 92 % 0.0 in
04:15 6.8 °F 6.0 °F 1000.9 in WSW 16.3 mph 19.8 mph 92 % 0.0 in
04:19 6.8 °F 6.0 °F 1000.9 in WSW 16.3 mph 17.2 mph 92 % 0.0 in
04:24 6.8 °F 6.0 °F 1000.9 in WSW 16.3 mph 16.3 mph 92 % 0.0 in
04:25 6.8 °F 6.0 °F 1000.9 in WSW 16.3 mph 16.3 mph 92 % 0.0 in
04:30 6.8 °F 6.0 °F 1000.9 in SW 14.0 mph 16.6 mph 92 % 0.0 in
04:31 6.8 °F 6.0 °F 1000.9 in SW 14.0 mph 16.6 mph 92 % 0.0 in
04:33 6.8 °F 6.0 °F 1000.9 in SW 14.0 mph 16.6 mph 92 % 0.0 in
04:38 6.8 °F 6.0 °F 1000.9 in SW 16.9 mph 16.9 mph 92 % 0.0 in
04:43 6.7 °F 6.0 °F 1000.9 in SSW 16.6 mph 16.9 mph 92 % 0.0 in
04:44 6.7 °F 6.0 °F 1000.9 in SSW 16.6 mph 16.9 mph 92 % 0.0 in
04:45 6.7 °F 6.0 °F 1000.9 in SSW 16.6 mph 16.9 mph 92 % 0.0 in
04:50 6.7 °F 6.0 °F 1000.9 in SSW 15.4 mph 16.9 mph 92 % 0.0 in
04:52 6.7 °F 6.0 °F 1000.9 in WSW 10.5 mph 16.6 mph 92 % 0.0 in
04:57 6.6 °F 6.0 °F 1000.9 in SSW 12.6 mph 20.1 mph 93 % 0.0 in
05:01 6.6 °F 6.0 °F 1000.9 in SSW 12.6 mph 20.1 mph 93 % 0.0 in
05:06 6.6 °F 6.0 °F 1000.9 in SSW 9.7 mph 20.1 mph 93 % 0.0 in
05:08 6.6 °F 6.0 °F 1000.9 in SSW 9.7 mph 20.1 mph 93 % 0.0 in
05:13 6.6 °F 6.0 °F 1000.9 in SSW 11.9 mph 16.9 mph 93 % 0.0 in
05:14 6.6 °F 6.0 °F 1000.9 in SSW 11.9 mph 16.9 mph 93 % 0.0 in
05:19 6.6 °F 6.0 °F 1000.9 in SSW 11.9 mph 16.9 mph 93 % 0.0 in
05:20 6.6 °F 6.0 °F 1000.9 in SSW 14.0 mph 16.9 mph 93 % 0.0 in
05:21 6.6 °F 6.0 °F 1000.9 in SSW 14.0 mph 16.9 mph 93 % 0.0 in
05:26 6.5 °F 6.0 °F 1001.9 in SSW 16.3 mph 16.3 mph 93 % 0.0 in
05:29 6.6 °F 6.0 °F 1001.9 in SW 14.0 mph 16.3 mph 94 % 0.0 in
05:34 6.6 °F 6.0 °F 1001.9 in SSW 18.0 mph 20.1 mph 94 % 0.0 in
05:40 6.7 °F 6.0 °F 1001.9 in SSW 11.6 mph 20.1 mph 94 % 0.0 in
05:45 6.8 °F 6.0 °F 1001.9 in South 15.8 mph 18.0 mph 94 % 0.0 in
05:48 6.8 °F 6.0 °F 1001.9 in South 15.8 mph 16.9 mph 94 % 0.0 in
05:53 7.0 °F 6.0 °F 1001.9 in SSW 16.6 mph 16.6 mph 94 % 0.0 in
05:55 7.0 °F 6.0 °F 1001.9 in SSW 16.6 mph 16.6 mph 94 % 0.0 in
06:00 7.0 °F 6.0 °F 1001.9 in SSW 24.8 mph 37.8 mph 93 % 0.0 in
06:01 7.0 °F 6.0 °F 1001.9 in SSW 24.8 mph 37.8 mph 93 % 0.0 in
06:05 6.7 °F 6.0 °F 1001.9 in SSW 24.8 mph 37.8 mph 93 % 0.3 in
06:10 6.5 °F 6.0 °F 1001.9 in SSW 24.8 mph 24.8 mph 94 % 0.3 in
06:12 6.5 °F 6.0 °F 1001.9 in SSW 24.8 mph 24.8 mph 94 % 0.5 in
06:17 6.4 °F 6.0 °F 1001.9 in WSW 20.9 mph 24.8 mph 95 % 0.5 in
06:22 6.3 °F 6.0 °F 1001.9 in SSW 14.3 mph 24.8 mph 95 % 0.5 in
06:23 6.3 °F 6.0 °F 1001.9 in SSW 14.3 mph 24.8 mph 95 % 0.5 in
06:24 6.3 °F 6.0 °F 1001.9 in SW 16.6 mph 20.9 mph 96 % 0.5 in
06:29 6.2 °F 6.0 °F 1001.9 in SW 16.6 mph 19.5 mph 96 % 0.5 in
06:35 6.1 °F 6.0 °F 1001.9 in WSW 13.7 mph 16.6 mph 96 % 0.5 in
06:40 6.0 °F 6.0 °F 1001.9 in WSW 15.8 mph 16.6 mph 96 % 0.5 in
06:45 6.0 °F 6.0 °F 1001.9 in SW 17.7 mph 21.9 mph 96 % 0.5 in
06:47 6.0 °F 6.0 °F 1001.9 in SW 18.0 mph 21.9 mph 96 % 0.5 in
06:52 6.0 °F 6.0 °F 1001.9 in WSW 10.5 mph 21.9 mph 97 % 0.5 in
06:56 6.1 °F 6.0 °F 1001.9 in WSW 16.6 mph 23.8 mph 97 % 0.5 in
07:01 6.1 °F 6.0 °F 1001.9 in SSW 13.0 mph 23.8 mph 97 % 0.5 in
07:06 6.3 °F 6.0 °F 1001.9 in WSW 20.6 mph 27.0 mph 97 % 0.3 in
07:10 6.3 °F 6.0 °F 1001.9 in WSW 20.6 mph 27.0 mph 98 % 0.5 in
07:13 6.3 °F 6.0 °F 1001.9 in WSW 20.6 mph 27.0 mph 98 % 0.3 in
07:17 6.3 °F 6.0 °F 1001.9 in WSW 20.6 mph 20.6 mph 98 % 0.3 in
07:20 6.3 °F 6.0 °F 1001.9 in WSW 20.6 mph 20.6 mph 98 % 0.5 in
07:25 6.3 °F 6.0 °F 1001.9 in WSW 20.6 mph 20.6 mph 98 % 1.0 in
07:27 6.3 °F 6.0 °F 1002.9 in WSW 20.6 mph 20.6 mph 98 % 1.0 in
07:32 6.3 °F 6.0 °F 1002.9 in WSW 14.0 mph 20.6 mph 98 % 1.0 in
07:36 6.2 °F 6.0 °F 1002.9 in WSW 14.0 mph 20.6 mph 98 % 1.0 in
07:38 6.2 °F 6.0 °F 1002.9 in WSW 14.0 mph 20.6 mph 98 % 1.0 in
07:43 6.2 °F 6.0 °F 1001.9 in WSW 14.0 mph 14.0 mph 98 % 1.3 in
07:48 6.1 °F 6.0 °F 1001.9 in WSW 14.0 mph 14.0 mph 98 % 1.5 in
07:50 6.1 °F 6.0 °F 1001.9 in WSW 14.0 mph 14.0 mph 98 % 1.5 in
07:55 6.1 °F 6.0 °F 1001.9 in WSW 14.0 mph 14.0 mph 98 % 1.5 in
08:01 6.1 °F 6.0 °F 1001.9 in WSW 14.0 mph 14.0 mph 98 % 1.5 in
08:06 6.1 °F 6.0 °F 1001.9 in SW 13.7 mph 13.7 mph 98 % 1.5 in
08:11 6.0 °F 6.0 °F 1001.9 in SSW 13.0 mph 16.9 mph 98 % 1.3 in
08:13 6.0 °F 6.0 °F 1001.9 in SSW 12.6 mph 16.9 mph 98 % 1.3 in
08:18 6.0 °F 6.0 °F 1001.9 in WSW 12.6 mph 19.1 mph 98 % 1.0 in
08:23 6.0 °F 6.0 °F 1001.9 in WSW 13.7 mph 19.1 mph 98 % 0.5 in
08:24 5.9 °F 6.0 °F 1001.9 in SW 12.2 mph 19.1 mph 98 % 0.5 in
08:29 5.9 °F 6.0 °F 1001.9 in SSW 20.9 mph 20.9 mph 98 % 0.5 in
08:35 5.8 °F 6.0 °F 1001.9 in SW 14.0 mph 20.9 mph 98 % 0.5 in
08:37 5.8 °F 6.0 °F 1001.9 in SSW 13.7 mph 20.9 mph 98 % 0.5 in
08:42 5.8 °F 6.0 °F 1001.9 in SSW 19.8 mph 19.8 mph 98 % 0.3 in
08:43 5.8 °F 6.0 °F 1001.9 in SSW 19.8 mph 19.8 mph 98 % 0.3 in
08:44 5.8 °F 6.0 °F 1001.9 in SSW 19.8 mph 19.8 mph 98 % 0.3 in
08:46 5.7 °F 6.0 °F 1001.9 in WSW 13.7 mph 19.8 mph 98 % 0.0 in
08:51 5.7 °F 6.0 °F 1001.9 in SW 11.9 mph 19.8 mph 97 % 0.0 in
08:57 5.7 °F 6.0 °F 1001.9 in SSW 10.5 mph 14.0 mph 97 % 0.0 in
08:58 5.8 °F 6.0 °F 1001.9 in SSW 9.3 mph 14.0 mph 97 % 0.0 in
08:59 5.8 °F 6.0 °F 1001.9 in SSW 9.3 mph 14.0 mph 97 % 0.0 in
09:04 5.8 °F 6.0 °F 1001.9 in SSW 7.6 mph 15.8 mph 97 % 0.0 in
09:09 5.8 °F 6.0 °F 1001.9 in SSW 14.0 mph 15.8 mph 97 % 0.0 in
09:11 5.9 °F 6.0 °F 1001.9 in SSW 12.2 mph 15.8 mph 97 % 0.0 in
09:16 5.9 °F 6.0 °F 1001.9 in SSW 10.1 mph 14.0 mph 97 % 0.0 in
09:21 5.8 °F 6.0 °F 1001.9 in SSW 12.2 mph 14.8 mph 97 % 0.0 in
09:23 5.8 °F 6.0 °F 1001.9 in SSW 13.7 mph 14.8 mph 97 % 0.0 in
09:28 5.8 °F 6.0 °F 1001.9 in SSW 9.3 mph 14.0 mph 97 % 0.0 in
09:31 5.8 °F 6.0 °F 1001.9 in SSW 9.3 mph 14.0 mph 97 % 0.0 in
09:36 5.8 °F 6.0 °F 1001.9 in SSW 15.1 mph 16.6 mph 96 % 0.0 in
09:37 5.8 °F 6.0 °F 1001.9 in SSW 13.7 mph 16.6 mph 96 % 0.0 in
09:39 5.8 °F 6.0 °F 1001.9 in South 9.0 mph 16.6 mph 96 % 0.0 in
09:42 5.8 °F 6.0 °F 1000.9 in South 6.1 mph 16.6 mph 96 % 0.0 in
09:47 5.9 °F 6.0 °F 1000.9 in South 7.9 mph 15.1 mph 96 % 0.0 in
09:48 5.9 °F 6.0 °F 1000.9 in South 8.7 mph 15.1 mph 96 % 0.0 in
09:53 5.9 °F 6.0 °F 1000.9 in SSW 10.1 mph 13.0 mph 96 % 0.0 in
09:58 5.9 °F 6.0 °F 1000.9 in South 8.7 mph 17.2 mph 96 % 0.0 in
10:04 6.0 °F 6.0 °F 1000.9 in South 13.7 mph 17.2 mph 96 % 0.0 in
10:09 6.0 °F 6.0 °F 1000.9 in South 12.2 mph 16.6 mph 96 % 0.0 in
10:14 6.0 °F 6.0 °F 999.9 in SSW 9.0 mph 16.6 mph 96 % 0.0 in
10:16 6.0 °F 6.0 °F 999.9 in SW 10.1 mph 16.6 mph 95 % 0.0 in
10:20 6.1 °F 6.0 °F 999.9 in South 4.7 mph 16.6 mph 95 % 0.0 in
10:22 6.1 °F 6.0 °F 999.9 in South 6.9 mph 16.6 mph 95 % 0.0 in
10:27 6.2 °F 6.0 °F 1000.9 in South 8.7 mph 16.6 mph 95 % 0.0 in
10:28 6.2 °F 6.0 °F 1000.9 in South 13.0 mph 16.6 mph 95 % 0.0 in
10:32 6.2 °F 6.0 °F 1000.9 in SSW 12.2 mph 16.6 mph 95 % 0.0 in
10:37 6.3 °F 6.0 °F 1000.9 in South 16.3 mph 18.0 mph 95 % 0.0 in
10:42 6.4 °F 6.0 °F 1000.9 in South 10.1 mph 19.1 mph 95 % 0.0 in
10:47 6.4 °F 6.0 °F 1000.9 in SSW 9.3 mph 19.1 mph 95 % 0.0 in
10:50 6.5 °F 6.0 °F 1000.9 in South 15.1 mph 19.8 mph 95 % 0.0 in
10:55 6.6 °F 6.0 °F 1000.9 in South 6.9 mph 19.8 mph 95 % 0.0 in
11:00 6.6 °F 6.0 °F 1000.9 in SSW 12.2 mph 17.2 mph 95 % 0.0 in
11:01 6.6 °F 6.0 °F 1000.9 in SSW 12.6 mph 17.2 mph 95 % 0.0 in
11:05 6.7 °F 6.0 °F 1000.9 in SSW 9.0 mph 19.1 mph 94 % 0.0 in
11:10 6.8 °F 6.0 °F 1000.9 in SSW 14.3 mph 19.5 mph 94 % 0.0 in
11:15 6.9 °F 6.0 °F 999.9 in SSW 23.8 mph 23.8 mph 93 % 0.0 in
11:20 7.0 °F 6.0 °F 999.9 in SSW 9.7 mph 24.5 mph 92 % 0.0 in
11:21 7.0 °F 6.0 °F 999.9 in SSW 20.6 mph 24.5 mph 92 % 0.0 in
11:26 7.0 °F 6.0 °F 998.9 in South 15.4 mph 24.5 mph 92 % 0.3 in
11:28 7.0 °F 6.0 °F 998.9 in South 13.7 mph 21.2 mph 92 % 0.3 in
11:33 7.0 °F 6.0 °F 998.9 in South 10.8 mph 21.2 mph 91 % 0.3 in
11:36 7.0 °F 6.0 °F 998.9 in SSW 11.6 mph 20.9 mph 92 % 0.3 in
11:40 7.0 °F 6.0 °F 998.9 in South 11.9 mph 15.8 mph 92 % 0.3 in
11:43 7.0 °F 6.0 °F 998.9 in SSE 13.0 mph 16.6 mph 92 % 0.3 in
11:48 7.0 °F 6.0 °F 998.9 in South 20.1 mph 20.1 mph 92 % 0.3 in
11:49 7.0 °F 6.0 °F 998.9 in South 9.3 mph 20.1 mph 92 % 0.3 in
11:50 7.0 °F 6.0 °F 998.9 in South 19.1 mph 20.1 mph 92 % 0.3 in
11:55 7.0 °F 6.0 °F 998.9 in South 16.3 mph 20.1 mph 92 % 0.3 in
11:57 7.0 °F 6.0 °F 998.9 in SSW 12.6 mph 20.1 mph 92 % 0.3 in
12:02 7.0 °F 6.0 °F 998.9 in South 16.3 mph 19.8 mph 93 % 0.3 in
12:07 7.0 °F 6.0 °F 998.9 in South 11.9 mph 20.6 mph 93 % 0.3 in
12:09 7.0 °F 6.0 °F 998.9 in SSE 14.0 mph 20.6 mph 93 % 0.3 in
12:14 7.0 °F 6.0 °F 997.9 in SSE 8.7 mph 27.7 mph 94 % 0.3 in
12:16 7.0 °F 6.0 °F 997.9 in SSW 11.9 mph 27.7 mph 94 % 0.3 in
12:17 7.0 °F 6.0 °F 997.9 in SSW 16.3 mph 27.7 mph 94 % 0.3 in
12:22 7.1 °F 6.0 °F 997.9 in SSW 9.3 mph 27.7 mph 94 % 0.3 in
12:24 7.1 °F 6.0 °F 997.9 in South 15.8 mph 21.2 mph 94 % 0.3 in
12:29 7.2 °F 6.0 °F 997.9 in SSW 18.3 mph 21.2 mph 94 % 0.0 in
12:30 7.2 °F 6.0 °F 997.9 in South 13.7 mph 21.2 mph 94 % 0.0 in
12:32 7.2 °F 7.0 °F 997.9 in SSW 19.8 mph 27.0 mph 95 % 0.0 in
12:37 7.2 °F 7.0 °F 997.9 in South 6.1 mph 27.0 mph 95 % 0.0 in
12:39 7.2 °F 7.0 °F 997.9 in SSW 10.1 mph 27.0 mph 95 % 0.0 in
12:44 7.2 °F 7.0 °F 996.8 in South 10.1 mph 16.9 mph 95 % 0.0 in
12:45 7.2 °F 7.0 °F 996.8 in South 13.0 mph 16.9 mph 95 % 0.0 in
12:50 7.2 °F 7.0 °F 996.8 in SSE 9.3 mph 16.9 mph 95 % 0.0 in
12:52 7.1 °F 6.0 °F 996.8 in SSW 13.0 mph 16.9 mph 95 % 0.0 in
12:57 7.1 °F 7.0 °F 996.8 in South 7.9 mph 17.2 mph 96 % 0.0 in
12:58 7.1 °F 7.0 °F 996.8 in South 9.0 mph 17.2 mph 96 % 0.0 in
13:03 7.1 °F 7.0 °F 996.8 in South 8.7 mph 18.0 mph 96 % 0.0 in
13:05 7.1 °F 7.0 °F 996.8 in South 11.9 mph 18.0 mph 96 % 0.3 in
13:08 7.1 °F 7.0 °F 996.8 in SSW 14.0 mph 20.9 mph 97 % 0.3 in
13:12 7.1 °F 7.0 °F 996.8 in SSW 16.3 mph 20.9 mph 97 % 0.3 in
13:17 7.0 °F 7.0 °F 996.8 in SSW 12.2 mph 20.9 mph 97 % 0.5 in
13:19 7.0 °F 7.0 °F 996.8 in South 20.6 mph 20.6 mph 97 % 0.8 in
13:24 6.9 °F 7.0 °F 996.8 in SSW 15.8 mph 20.6 mph 98 % 0.8 in
13:26 6.9 °F 7.0 °F 996.2 in SSW 12.2 mph 20.6 mph 98 % 1.3 in
13:31 6.7 °F 7.0 °F 996.2 in South 12.6 mph 19.5 mph 98 % 1.5 in
13:32 6.7 °F 7.0 °F 996.2 in South 10.1 mph 16.9 mph 98 % 1.5 in
13:37 6.6 °F 7.0 °F 996.2 in Calm   16.9 mph 98 % 1.8 in
13:42 6.5 °F 7.0 °F 995.1 in SE 6.1 mph 13.0 mph 98 % 2.3 in
13:44 6.5 °F 7.0 °F 995.1 in SSE 9.7 mph 11.6 mph 98 % 2.3 in
13:47 6.5 °F 7.0 °F 995.1 in SE 3.2 mph 11.1 mph 98 % 2.3 in
13:49 6.5 °F 7.0 °F 995.1 in Calm   11.1 mph 98 % 2.5 in
13:54 6.5 °F 7.0 °F 995.1 in Calm   11.1 mph 98 % 2.5 in
13:55 6.5 °F 7.0 °F 995.1 in SSE 5.8 mph 9.0 mph 98 % 2.5 in
14:00 6.4 °F 6.0 °F 995.1 in SSE 6.1 mph 12.6 mph 98 % 2.8 in
14:01 6.5 °F 7.0 °F 995.1 in SSE 6.4 mph 12.6 mph 98 % 2.8 in
14:06 6.5 °F 7.0 °F 995.1 in SSE 9.0 mph 12.6 mph 98 % 2.5 in
14:08 6.5 °F 7.0 °F 995.1 in South 12.6 mph 14.3 mph 98 % 2.8 in
14:13 6.5 °F 7.0 °F 995.1 in SE 10.5 mph 17.7 mph 98 % 2.5 in
14:18 6.5 °F 7.0 °F 995.1 in Calm   17.7 mph 98 % 2.8 in
14:23 6.5 °F 7.0 °F 995.1 in SSE 1.4 mph 12.6 mph 98 % 2.5 in
14:26 6.5 °F 7.0 °F 994.1 in SSE 4.7 mph 12.6 mph 98 % 2.5 in
14:31 6.5 °F 7.0 °F 994.1 in Calm   13.7 mph 98 % 2.5 in
14:33 6.5 °F 7.0 °F 994.1 in South 6.4 mph 13.7 mph 98 % 2.5 in
14:34 6.5 °F 7.0 °F 994.1 in SSE 6.1 mph 13.7 mph 98 % 2.5 in
14:39 6.5 °F 7.0 °F 994.1 in Calm   15.4 mph 98 % 2.5 in
14:40 6.5 °F 7.0 °F 994.1 in South 2.1 mph 15.4 mph 98 % 2.5 in
14:45 6.5 °F 7.0 °F 994.1 in Calm   15.4 mph 98 % 2.8 in
14:50 6.4 °F 6.0 °F 994.1 in South 5.5 mph 10.8 mph 98 % 2.8 in
14:55 6.4 °F 6.0 °F 994.1 in Calm   10.8 mph 98 % 3.0 in
15:00 6.4 °F 6.0 °F 994.1 in Calm   7.6 mph 98 % 3.3 in
15:06 6.4 °F 6.0 °F 994.1 in South 5.8 mph 14.0 mph 98 % 3.8 in
15:11 6.4 °F 6.0 °F 994.1 in Calm   14.0 mph 98 % 3.8 in
15:12 6.4 °F 6.0 °F 994.1 in Calm   13.7 mph 98 % 3.8 in
15:15 6.4 °F 6.0 °F 994.1 in Calm   9.0 mph 98 % 4.1 in
15:19 6.4 °F 6.0 °F 994.1 in Calm   5.8 mph 98 % 3.8 in
15:23 6.3 °F 6.0 °F 994.1 in SSW 4.3 mph 5.8 mph 98 % 4.1 in
15:29 6.3 °F 6.0 °F 993.1 in SSW 5.8 mph 16.3 mph 98 % 4.1 in
15:30 6.3 °F 6.0 °F 993.1 in South 6.1 mph 16.3 mph 98 % 4.1 in
15:35 6.4 °F 6.0 °F 993.1 in South 5.5 mph 10.1 mph 98 % 4.1 in
15:38 6.4 °F 6.0 °F 993.1 in SSW 5.5 mph 7.9 mph 98 % 3.8 in
15:40 6.4 °F 6.0 °F 993.1 in Calm   8.7 mph 98 % 4.1 in
15:45 6.4 °F 6.0 °F 994.1 in Calm   8.7 mph 98 % 3.8 in
15:47 6.4 °F 6.0 °F 994.1 in SSW 6.9 mph 8.7 mph 98 % 3.8 in
15:52 6.3 °F 6.0 °F 994.1 in Calm   6.9 mph 98 % 3.3 in
15:57 6.4 °F 6.0 °F 994.1 in WSW 2.6 mph 6.9 mph 98 % 3.6 in
16:02 6.4 °F 6.0 °F 994.1 in Calm   4.7 mph 98 % 3.3 in
16:03 6.4 °F 6.0 °F 994.1 in Calm   4.7 mph 98 % 3.0 in
16:07 6.4 °F 6.0 °F 994.1 in Calm   3.5 mph 98 % 3.3 in
16:12 6.4 °F 6.0 °F 994.1 in Calm     98 % 3.3 in
16:16 6.4 °F 6.0 °F 994.1 in Calm     98 % 3.0 in
16:21 6.4 °F 6.0 °F 994.1 in Calm     98 % 3.0 in
16:26 6.3 °F 6.0 °F 994.1 in Calm     98 % 2.8 in
16:33 6.3 °F 6.0 °F 994.1 in Calm     98 % 2.5 in
16:38 6.3 °F 6.0 °F 994.1 in Calm     98 % 2.5 in
16:43 6.3 °F 6.0 °F 994.1 in Calm     98 % 2.3 in
16:45 6.3 °F 6.0 °F 994.1 in Calm     98 % 2.3 in
16:46 6.3 °F 6.0 °F 994.1 in Calm     98 % 2.3 in
16:51 6.3 °F 6.0 °F 994.1 in Calm     98 % 1.8 in
16:52 6.3 °F 6.0 °F 994.1 in Calm     98 % 1.5 in
16:57 6.3 °F 6.0 °F 995.1 in Calm   2.1 mph 98 % 1.3 in
17:01 6.3 °F 6.0 °F 995.1 in Calm   2.1 mph 98 % 1.3 in
17:06 6.2 °F 6.0 °F 995.1 in WSW 5.0 mph 6.1 mph 98 % 0.8 in
17:08 6.2 °F 6.0 °F 995.1 in WSW 9.0 mph 9.0 mph 98 % 0.8 in
17:11 6.3 °F 6.0 °F 995.1 in West 4.0 mph 9.0 mph 98 % 0.5 in
17:14 6.3 °F 6.0 °F 995.1 in NW 11.9 mph 11.9 mph 98 % 0.8 in
17:19 6.3 °F 6.0 °F 995.1 in WNW 9.7 mph 16.6 mph 98 % 0.8 in
17:22 6.3 °F 6.0 °F 995.1 in SSW 9.0 mph 16.6 mph 98 % 0.5 in
17:27 6.3 °F 6.0 °F 996.2 in WNW 11.9 mph 16.6 mph 98 % 0.5 in
17:32 6.3 °F 6.0 °F 996.2 in North 8.7 mph 24.5 mph 98 % 0.3 in
17:37 6.2 °F 6.0 °F 996.2 in West 2.6 mph 24.5 mph 98 % 0.3 in
17:38 6.2 °F 6.0 °F 996.2 in West 2.6 mph 24.5 mph 98 % 0.3 in
17:43 6.1 °F 6.0 °F 996.2 in NNW 10.1 mph 23.3 mph 98 % 0.3 in
17:47 6.0 °F 6.0 °F 996.2 in WSW 5.5 mph 18.3 mph 98 % 0.3 in
17:52 5.9 °F 6.0 °F 996.2 in West 4.0 mph 15.8 mph 98 % 0.3 in
17:57 5.8 °F 6.0 °F 996.8 in West 10.5 mph 16.3 mph 98 % 0.3 in
18:03 5.8 °F 6.0 °F 996.8 in NE 10.1 mph 15.8 mph 98 % 0.3 in
18:04 5.8 °F 6.0 °F 996.8 in NNW 17.2 mph 17.2 mph 98 % 0.3 in
18:09 5.7 °F 6.0 °F 996.8 in North 7.2 mph 17.2 mph 98 % 0.3 in
18:10 5.7 °F 6.0 °F 996.8 in NNW 6.1 mph 17.2 mph 98 % 0.3 in
18:15 5.7 °F 6.0 °F 996.8 in WNW 5.5 mph 13.7 mph 98 % 0.0 in
18:22 5.7 °F 6.0 °F 996.8 in WNW 4.7 mph 18.3 mph 98 % 0.0 in
18:23 5.7 °F 6.0 °F 996.8 in NNE 6.9 mph 18.3 mph 98 % 0.0 in
18:27 5.7 °F 6.0 °F 997.9 in North 5.5 mph 18.3 mph 98 % 0.0 in
18:28 5.7 °F 6.0 °F 997.9 in NNW 9.0 mph 18.3 mph 98 % 0.0 in
18:29 5.7 °F 6.0 °F 997.9 in NNW 9.0 mph 18.3 mph 98 % 0.0 in
18:34 5.6 °F 6.0 °F 997.9 in West 1.4 mph 13.7 mph 98 % 0.0 in
18:37 5.6 °F 6.0 °F 997.9 in WNW 1.4 mph 13.0 mph 98 % 0.0 in
18:39 5.7 °F 6.0 °F 997.9 in NW 12.6 mph 13.0 mph 98 % 0.0 in
18:43 5.7 °F 6.0 °F 997.9 in NNW 4.7 mph 13.0 mph 98 % 0.0 in
18:48 5.7 °F 6.0 °F 997.9 in NNW 11.6 mph 13.7 mph 98 % 0.0 in
18:53 5.7 °F 6.0 °F 997.9 in NW 7.6 mph 13.7 mph 98 % 0.0 in
18:54 5.7 °F 6.0 °F 997.9 in NNW 9.7 mph 12.6 mph 98 % 0.0 in
18:59 5.7 °F 6.0 °F 998.9 in WNW 7.9 mph 17.7 mph 98 % 0.0 in
19:02 5.7 °F 6.0 °F 998.9 in WNW 10.5 mph 17.7 mph 98 % 0.0 in
19:04 5.7 °F 6.0 °F 998.9 in West 4.7 mph 17.7 mph 98 % 0.0 in
19:07 5.7 °F 6.0 °F 998.9 in West 9.3 mph 17.7 mph 98 % 0.0 in
19:10 5.7 °F 6.0 °F 998.9 in WSW 8.7 mph 14.0 mph 98 % 0.0 in
19:13 5.7 °F 6.0 °F 997.9 in WNW 10.5 mph 16.3 mph 98 % 0.0 in
19:17 5.8 °F 6.0 °F 997.9 in West 11.9 mph 16.3 mph 98 % 0.0 in
19:20 5.8 °F 6.0 °F 997.9 in West 11.9 mph 16.6 mph 98 % 0.0 in
19:25 5.8 °F 6.0 °F 997.9 in WNW 6.1 mph 16.6 mph 98 % 0.0 in
19:29 5.8 °F 6.0 °F 998.9 in West 15.1 mph 15.1 mph 98 % 0.0 in
19:31 5.9 °F 6.0 °F 998.9 in West 7.2 mph 17.2 mph 98 % 0.0 in
19:34 5.9 °F 6.0 °F 998.9 in West 8.7 mph 17.2 mph 98 % 0.0 in
19:37 5.9 °F 6.0 °F 998.9 in West 5.8 mph 17.2 mph 98 % 0.0 in
19:40 5.9 °F 6.0 °F 998.9 in West 8.7 mph 14.0 mph 98 % 0.0 in
19:45 5.9 °F 6.0 °F 999.9 in West 13.7 mph 16.3 mph 98 % 0.0 in
19:48 5.9 °F 6.0 °F 999.9 in West 15.8 mph 17.2 mph 98 % 0.0 in
19:53 5.9 °F 6.0 °F 999.9 in West 14.0 mph 17.2 mph 98 % 0.0 in
19:54 6.0 °F 6.0 °F 999.9 in West 24.8 mph 24.8 mph 98 % 0.0 in
19:58 6.0 °F 6.0 °F 1000.9 in West 10.8 mph 24.8 mph 98 % 0.0 in
20:01 6.0 °F 6.0 °F 1000.9 in WNW 16.3 mph 24.8 mph 98 % 0.0 in
20:06 6.0 °F 6.0 °F 1000.9 in West 7.9 mph 17.7 mph 98 % 0.0 in
20:08 6.0 °F 6.0 °F 1000.9 in WNW 12.6 mph 17.7 mph 98 % 0.0 in
20:12 6.0 °F 6.0 °F 1000.9 in West 13.0 mph 17.7 mph 98 % 0.0 in
20:16 6.0 °F 6.0 °F 1000.9 in WSW 21.2 mph 21.2 mph 98 % 0.0 in
20:18 6.1 °F 6.0 °F 1000.9 in West 10.1 mph 21.2 mph 98 % 0.0 in
20:22 6.1 °F 6.0 °F 1000.9 in WNW 8.7 mph 21.2 mph 98 % 0.0 in
20:27 6.2 °F 6.0 °F 1000.9 in WSW 17.2 mph 17.7 mph 98 % 0.0 in
20:32 6.2 °F 6.0 °F 1000.9 in West 13.7 mph 17.7 mph 98 % 0.0 in
20:37 6.2 °F 6.0 °F 1000.9 in WNW 9.3 mph 20.6 mph 98 % 0.0 in
20:38 6.2 °F 6.0 °F 1000.9 in West 15.8 mph 20.6 mph 98 % 0.0 in
20:43 6.3 °F 6.0 °F 1000.9 in WNW 12.2 mph 18.0 mph 98 % 0.0 in
20:44 6.3 °F 6.0 °F 1000.9 in West 12.6 mph 18.0 mph 98 % 0.0 in
20:47 6.3 °F 6.0 °F 1000.9 in WSW 8.7 mph 16.9 mph 98 % 0.0 in
20:50 6.3 °F 6.0 °F 1000.9 in West 10.5 mph 16.9 mph 98 % 0.0 in
20:54 6.3 °F 6.0 °F 1000.9 in WSW 10.5 mph 17.2 mph 98 % 0.0 in
20:59 6.2 °F 6.0 °F 1001.9 in West 11.6 mph 17.2 mph 98 % 0.3 in
21:02 6.2 °F 6.0 °F 1001.9 in West 14.0 mph 17.2 mph 98 % 0.3 in
21:04 6.2 °F 6.0 °F 1001.9 in WSW 8.7 mph 15.8 mph 98 % 0.3 in
21:09 6.1 °F 6.0 °F 1001.9 in West 12.6 mph 15.8 mph 98 % 0.3 in
21:14 6.1 °F 6.0 °F 1001.9 in WSW 10.1 mph 14.0 mph 98 % 0.3 in
21:20 6.0 °F 6.0 °F 1001.9 in WSW 5.0 mph 14.0 mph 98 % 0.3 in
21:25 6.0 °F 6.0 °F 1001.9 in WNW 5.8 mph 15.1 mph 98 % 0.3 in
21:29 5.9 °F 6.0 °F 1001.9 in WSW 9.7 mph 15.1 mph 98 % 0.3 in
21:34 5.9 °F 6.0 °F 1001.9 in WSW 17.2 mph 17.2 mph 98 % 0.3 in
21:40 6.0 °F 6.0 °F 1001.9 in West 12.6 mph 17.7 mph 98 % 0.3 in
21:41 6.0 °F 6.0 °F 1002.9 in West 9.0 mph 17.7 mph 98 % 0.3 in
21:46 6.1 °F 6.0 °F 1002.9 in West 17.2 mph 17.7 mph 98 % 0.3 in
21:47 6.2 °F 6.0 °F 1002.9 in West 10.1 mph 17.7 mph 98 % 0.3 in
21:50 6.3 °F 6.0 °F 1002.9 in WSW 13.0 mph 18.0 mph 98 % 0.3 in
21:55 6.4 °F 6.0 °F 1002.9 in WSW 13.0 mph 18.0 mph 98 % 0.3 in
21:56 6.4 °F 6.0 °F 1002.9 in WSW 17.7 mph 18.0 mph 98 % 0.3 in
22:01 6.5 °F 7.0 °F 1002.9 in West 13.7 mph 19.5 mph 98 % 0.0 in
22:06 6.7 °F 7.0 °F 1002.9 in WSW 12.6 mph 24.5 mph 98 % 0.0 in
22:10 6.8 °F 7.0 °F 1002.9 in SSW 24.5 mph 24.5 mph 98 % 0.0 in
22:12 6.8 °F 7.0 °F 1002.9 in West 20.6 mph 24.5 mph 98 % 0.0 in
22:17 7.0 °F 7.0 °F 1002.9 in SW 19.8 mph 24.5 mph 97 % 0.0 in
22:19 7.0 °F 7.0 °F 1002.9 in West 19.1 mph 24.5 mph 96 % 0.0 in
22:22 7.1 °F 7.0 °F 1002.9 in West 16.3 mph 22.7 mph 96 % 0.0 in
22:26 7.2 °F 7.0 °F 1002.9 in WSW 16.6 mph 25.6 mph 95 % 0.0 in
22:31 7.3 °F 6.0 °F 1002.9 in West 16.9 mph 29.1 mph 94 % 0.0 in
22:33 7.3 °F 6.0 °F 1002.9 in WSW 17.2 mph 29.1 mph 93 % 0.0 in
22:38 7.3 °F 6.0 °F 1002.9 in West 12.2 mph 29.1 mph 92 % 0.0 in
22:39 7.3 °F 6.0 °F 1002.9 in West 15.4 mph 29.1 mph 92 % 0.0 in
22:44 7.3 °F 6.0 °F 1002.9 in WSW 15.8 mph 21.2 mph 91 % 0.0 in
22:49 7.3 °F 6.0 °F 1002.9 in WNW 20.1 mph 24.5 mph 90 % 0.0 in
22:50 7.3 °F 6.0 °F 1002.9 in West 10.8 mph 24.5 mph 90 % 0.0 in
22:55 7.4 °F 6.0 °F 1002.9 in West 19.5 mph 24.5 mph 89 % 0.0 in
23:00 7.5 °F 6.0 °F 1002.9 in WNW 21.2 mph 28.5 mph 88 % 0.0 in
23:03 7.5 °F 6.0 °F 1002.9 in West 16.9 mph 28.5 mph 88 % 0.0 in
23:08 7.6 °F 6.0 °F 1002.9 in West 24.5 mph 24.5 mph 87 % 0.0 in
23:13 7.7 °F 6.0 °F 1002.9 in WSW 16.6 mph 31.7 mph 86 % 0.0 in
23:17 7.7 °F 6.0 °F 1002.9 in West 27.4 mph 31.7 mph 85 % 0.0 in
23:22 7.8 °F 5.0 °F 1002.9 in WSW 20.9 mph 31.4 mph 83 % 0.0 in
23:24 7.8 °F 5.0 °F 1002.9 in West 16.6 mph 31.4 mph 83 % 0.0 in
23:28 7.8 °F 5.0 °F 1003.9 in WNW 14.8 mph 31.4 mph 83 % 0.0 in
23:32 7.8 °F 5.0 °F 1003.9 in West 21.9 mph 28.0 mph 83 % 0.0 in
23:37 7.8 °F 5.0 °F 1003.9 in West 28.0 mph 28.0 mph 83 % 0.0 in
23:38 7.8 °F 5.0 °F 1003.9 in West 24.5 mph 28.0 mph 83 % 0.0 in
23:40 7.8 °F 5.0 °F 1003.9 in West 24.8 mph 28.0 mph 83 % 0.0 in
23:45 7.8 °F 5.0 °F 1005.0 in West 37.8 mph 37.8 mph 83 % 0.0 in
23:50 7.9 °F 5.0 °F 1005.0 in West 16.9 mph 37.8 mph 81 % 0.0 in
23:51 7.9 °F 5.0 °F 1005.0 in SW 16.3 mph 37.8 mph 82 % 0.0 in
23:56 7.9 °F 5.0 °F 1005.0 in West 14.0 mph 31.4 mph 82 % 0.0 in
23:57 7.9 °F 5.0 °F 1005.0 in WSW 16.6 mph 30.9 mph 82 % 0.0 in
23:59 7.9 °F 5.0 °F 1005.0 in West 16.3 mph 30.9 mph 82 % 0.0 in
Le Gheer Warneton
Courtoisie de Weather Underground - 2.75 mb

Mise a jour : 24/02/2018 01:23:11
Généré par Cumulus 1.9.4 (1099)